sensor_id;sensor_type;location;lat;lon;timestamp;pressure;altitude;pressure_sealevel;temperature;humidity
4570;BME280;2297;51.442;6.996;2023-01-10T00:01:47;99859.69;;;7.60;57.66
4570;BME280;2297;51.442;6.996;2023-01-10T00:04:13;99865.69;;;7.68;57.31
4570;BME280;2297;51.442;6.996;2023-01-10T00:06:40;99871.44;;;7.37;57.69
4570;BME280;2297;51.442;6.996;2023-01-10T00:09:08;99881.81;;;7.43;57.42
4570;BME280;2297;51.442;6.996;2023-01-10T00:11:37;99878.44;;;7.35;58.00
4570;BME280;2297;51.442;6.996;2023-01-10T00:14:20;99894.56;;;7.07;58.52
4570;BME280;2297;51.442;6.996;2023-01-10T00:16:47;99901.34;;;7.27;58.36
4570;BME280;2297;51.442;6.996;2023-01-10T00:19:14;99906.63;;;7.21;58.34
4570;BME280;2297;51.442;6.996;2023-01-10T00:21:41;99909.22;;;7.27;58.10
4570;BME280;2297;51.442;6.996;2023-01-10T00:24:09;99917.13;;;7.24;58.27
4570;BME280;2297;51.442;6.996;2023-01-10T00:26:46;99920.63;;;7.23;58.36
4570;BME280;2297;51.442;6.996;2023-01-10T00:29:17;99926.75;;;7.25;58.61
4570;BME280;2297;51.442;6.996;2023-01-10T00:31:43;99937.94;;;7.39;57.99
4570;BME280;2297;51.442;6.996;2023-01-10T00:34:10;99938.06;;;7.30;57.92
4570;BME280;2297;51.442;6.996;2023-01-10T00:36:37;99938.94;;;7.32;58.10
4570;BME280;2297;51.442;6.996;2023-01-10T00:39:04;99948.31;;;7.48;57.83
4570;BME280;2297;51.442;6.996;2023-01-10T00:41:37;99944.88;;;7.43;57.53
4570;BME280;2297;51.442;6.996;2023-01-10T00:44:22;99950.16;;;7.45;57.41
4570;BME280;2297;51.442;6.996;2023-01-10T00:46:50;99953.56;;;7.48;57.41
4570;BME280;2297;51.442;6.996;2023-01-10T00:49:17;99951.25;;;7.24;57.84
4570;BME280;2297;51.442;6.996;2023-01-10T00:51:44;99959.13;;;7.27;58.08
4570;BME280;2297;51.442;6.996;2023-01-10T00:54:11;99959.84;;;7.40;57.47
4570;BME280;2297;51.442;6.996;2023-01-10T00:56:39;99967.97;;;7.17;58.18
4570;BME280;2297;51.442;6.996;2023-01-10T00:59:05;99970.81;;;6.98;58.22
4570;BME280;2297;51.442;6.996;2023-01-10T01:01:34;99973.31;;;7.10;58.15
4570;BME280;2297;51.442;6.996;2023-01-10T01:04:02;99976.66;;;7.22;58.01
4570;BME280;2297;51.442;6.996;2023-01-10T01:06:29;99973.97;;;7.31;57.73
4570;BME280;2297;51.442;6.996;2023-01-10T01:08:55;99983.66;;;7.23;57.90
4570;BME280;2297;51.442;6.996;2023-01-10T01:11:22;99992.34;;;7.31;57.45
4570;BME280;2297;51.442;6.996;2023-01-10T01:13:49;100000.25;;;7.29;57.21
4570;BME280;2297;51.442;6.996;2023-01-10T01:16:16;100013.31;;;7.34;57.36
4570;BME280;2297;51.442;6.996;2023-01-10T01:18:44;100015.09;;;7.34;57.38
4570;BME280;2297;51.442;6.996;2023-01-10T01:21:11;100030.06;;;7.24;57.32
4570;BME280;2297;51.442;6.996;2023-01-10T01:23:37;100025.06;;;6.99;58.51
4570;BME280;2297;51.442;6.996;2023-01-10T01:26:04;100029.50;;;6.94;58.38
4570;BME280;2297;51.442;6.996;2023-01-10T01:28:31;100040.06;;;6.88;58.84
4570;BME280;2297;51.442;6.996;2023-01-10T01:30:58;100041.75;;;6.95;58.52
4570;BME280;2297;51.442;6.996;2023-01-10T01:33:24;100038.25;;;6.96;58.43
4570;BME280;2297;51.442;6.996;2023-01-10T01:35:52;100043.31;;;7.11;58.18
4570;BME280;2297;51.442;6.996;2023-01-10T01:38:19;100050.44;;;7.00;58.00
4570;BME280;2297;51.442;6.996;2023-01-10T01:40:46;100044.97;;;7.22;57.97
4570;BME280;2297;51.442;6.996;2023-01-10T01:43:21;100057.50;;;6.95;58.37
4570;BME280;2297;51.442;6.996;2023-01-10T01:45:49;100060.16;;;6.93;58.39
4570;BME280;2297;51.442;6.996;2023-01-10T01:48:24;100066.94;;;7.14;57.95
4570;BME280;2297;51.442;6.996;2023-01-10T01:50:58;100074.97;;;6.99;58.11
4570;BME280;2297;51.442;6.996;2023-01-10T01:53:33;100073.00;;;7.20;57.51
4570;BME280;2297;51.442;6.996;2023-01-10T01:56:04;100080.13;;;7.08;57.59
4570;BME280;2297;51.442;6.996;2023-01-10T01:58:37;100082.09;;;6.85;58.68
4570;BME280;2297;51.442;6.996;2023-01-10T02:01:05;100096.13;;;6.80;58.51
4570;BME280;2297;51.442;6.996;2023-01-10T02:03:32;100088.78;;;7.17;57.32
4570;BME280;2297;51.442;6.996;2023-01-10T02:06:00;100098.56;;;7.01;57.70
4570;BME280;2297;51.442;6.996;2023-01-10T02:08:27;100088.78;;;7.20;57.36
4570;BME280;2297;51.442;6.996;2023-01-10T02:10:58;100088.78;;;7.20;56.94
4570;BME280;2297;51.442;6.996;2023-01-10T02:13:28;100086.13;;;7.21;56.88
4570;BME280;2297;51.442;6.996;2023-01-10T02:15:55;100091.34;;;7.23;56.93
4570;BME280;2297;51.442;6.996;2023-01-10T02:18:23;100097.38;;;7.37;56.75
4570;BME280;2297;51.442;6.996;2023-01-10T02:21:11;100109.53;;;7.47;56.25
4570;BME280;2297;51.442;6.996;2023-01-10T02:23:59;100100.88;;;7.36;56.45
4570;BME280;2297;51.442;6.996;2023-01-10T02:26:56;100100.59;;;7.61;55.92
4570;BME280;2297;51.442;6.996;2023-01-10T02:32:42;100106.13;;;7.36;56.06
4570;BME280;2297;51.442;6.996;2023-01-10T02:35:21;100107.94;;;7.31;56.21
4570;BME280;2297;51.442;6.996;2023-01-10T02:37:55;100108.06;;;7.15;56.31
4570;BME280;2297;51.442;6.996;2023-01-10T02:40:33;100106.28;;;7.18;56.84
4570;BME280;2297;51.442;6.996;2023-01-10T02:43:07;100115.00;;;7.26;56.27
4570;BME280;2297;51.442;6.996;2023-01-10T02:45:37;100114.09;;;7.28;56.19
4570;BME280;2297;51.442;6.996;2023-01-10T02:48:08;100111.59;;;7.11;56.34
4570;BME280;2297;51.442;6.996;2023-01-10T02:50:53;100111.72;;;6.99;56.86
4570;BME280;2297;51.442;6.996;2023-01-10T02:53:25;100108.16;;;7.05;56.36
4570;BME280;2297;51.442;6.996;2023-01-10T02:59:05;100119.66;;;6.94;56.42
4570;BME280;2297;51.442;6.996;2023-01-10T03:01:43;100118.53;;;7.19;56.02
4570;BME280;2297;51.442;6.996;2023-01-10T03:04:19;100123.19;;;6.89;56.43
4570;BME280;2297;51.442;6.996;2023-01-10T03:06:53;100127.47;;;6.99;56.16
4570;BME280;2297;51.442;6.996;2023-01-10T03:09:24;100126.50;;;7.09;55.68
4570;BME280;2297;51.442;6.996;2023-01-10T03:12:00;100142.44;;;6.89;55.84
4570;BME280;2297;51.442;6.996;2023-01-10T03:14:29;100148.59;;;6.84;56.48
4570;BME280;2297;51.442;6.996;2023-01-10T03:17:00;100148.47;;;6.99;55.86
4570;BME280;2297;51.442;6.996;2023-01-10T03:19:33;100146.63;;;7.09;55.61
4570;BME280;2297;51.442;6.996;2023-01-10T03:22:02;100157.16;;;7.10;55.37
4570;BME280;2297;51.442;6.996;2023-01-10T03:24:33;100161.63;;;6.97;55.54
4570;BME280;2297;51.442;6.996;2023-01-10T03:27:06;100164.28;;;6.94;55.46
4570;BME280;2297;51.442;6.996;2023-01-10T03:29:39;100168.84;;;6.68;56.29
4570;BME280;2297;51.442;6.996;2023-01-10T03:32:11;100174.84;;;6.87;56.03
4570;BME280;2297;51.442;6.996;2023-01-10T03:34:40;100174.81;;;6.90;55.51
4570;BME280;2297;51.442;6.996;2023-01-10T03:37:12;100182.53;;;7.08;55.01
4570;BME280;2297;51.442;6.996;2023-01-10T03:39:43;100181.06;;;6.70;55.84
4570;BME280;2297;51.442;6.996;2023-01-10T03:42:20;100179.13;;;6.95;55.54
4570;BME280;2297;51.442;6.996;2023-01-10T03:44:52;100181.72;;;7.02;55.33
4570;BME280;2297;51.442;6.996;2023-01-10T03:47:23;100184.38;;;6.95;55.38
4570;BME280;2297;51.442;6.996;2023-01-10T03:49:58;100184.31;;;7.05;55.04
4570;BME280;2297;51.442;6.996;2023-01-10T03:52:28;100189.16;;;6.39;56.19
4570;BME280;2297;51.442;6.996;2023-01-10T03:54:55;100196.97;;;6.47;56.27
4570;BME280;2297;51.442;6.996;2023-01-10T03:57:23;100202.13;;;6.61;56.02
4570;BME280;2297;51.442;6.996;2023-01-10T03:59:52;100213.53;;;6.57;56.17
4570;BME280;2297;51.442;6.996;2023-01-10T04:02:19;100211.72;;;6.65;55.79
4570;BME280;2297;51.442;6.996;2023-01-10T04:04:46;100219.66;;;6.56;55.91
4570;BME280;2297;51.442;6.996;2023-01-10T04:07:14;100213.44;;;6.72;55.55
4570;BME280;2297;51.442;6.996;2023-01-10T04:09:40;100213.53;;;6.57;55.77
4570;BME280;2297;51.442;6.996;2023-01-10T04:12:07;100227.50;;;6.62;55.88
4570;BME280;2297;51.442;6.996;2023-01-10T04:14:34;100229.25;;;6.60;56.02
4570;BME280;2297;51.442;6.996;2023-01-10T04:17:01;100236.19;;;6.73;55.59
4570;BME280;2297;51.442;6.996;2023-01-10T04:19:28;100243.22;;;6.65;55.49
4570;BME280;2297;51.442;6.996;2023-01-10T04:21:55;100238.03;;;6.59;55.74
4570;BME280;2297;51.442;6.996;2023-01-10T04:24:23;100240.63;;;6.60;55.46
4570;BME280;2297;51.442;6.996;2023-01-10T04:26:50;100244.97;;;6.71;55.41
4570;BME280;2297;51.442;6.996;2023-01-10T04:29:16;100242.34;;;6.68;55.13
4570;BME280;2297;51.442;6.996;2023-01-10T04:31:43;100247.53;;;6.77;55.12
4570;BME280;2297;51.442;6.996;2023-01-10T04:34:10;100242.38;;;6.61;55.31
4570;BME280;2297;51.442;6.996;2023-01-10T04:36:36;100244.94;;;6.72;55.07
4570;BME280;2297;51.442;6.996;2023-01-10T04:39:03;100239.00;;;6.39;55.93
4570;BME280;2297;51.442;6.996;2023-01-10T04:41:31;100248.56;;;6.45;55.77
4570;BME280;2297;51.442;6.996;2023-01-10T04:43:58;100238.03;;;6.59;55.60
4570;BME280;2297;51.442;6.996;2023-01-10T04:46:25;100249.38;;;6.61;55.58
4570;BME280;2297;51.442;6.996;2023-01-10T04:48:52;100246.81;;;6.44;55.57
4570;BME280;2297;51.442;6.996;2023-01-10T04:51:18;100245.09;;;6.44;55.54
4570;BME280;2297;51.442;6.996;2023-01-10T04:53:45;100254.69;;;6.47;55.58
4570;BME280;2297;51.442;6.996;2023-01-10T04:56:15;100254.78;;;6.27;55.85
4570;BME280;2297;51.442;6.996;2023-01-10T04:58:43;100253.88;;;6.40;55.67
4570;BME280;2297;51.442;6.996;2023-01-10T05:01:12;100252.97;;;6.41;55.47
4570;BME280;2297;51.442;6.996;2023-01-10T05:03:39;100260.06;;;6.16;56.34
4570;BME280;2297;51.442;6.996;2023-01-10T05:06:06;100264.38;;;6.28;56.07
4570;BME280;2297;51.442;6.996;2023-01-10T05:08:33;100263.47;;;6.40;55.82
4570;BME280;2297;51.442;6.996;2023-01-10T05:11:00;100269.53;;;6.53;55.29
4570;BME280;2297;51.442;6.996;2023-01-10T05:13:27;100270.50;;;6.25;55.77
4570;BME280;2297;51.442;6.996;2023-01-10T05:15:56;100278.47;;;5.96;56.37
4570;BME280;2297;51.442;6.996;2023-01-10T05:18:23;100273.16;;;6.21;56.35
4570;BME280;2297;51.442;6.996;2023-01-10T05:20:50;100281.91;;;6.26;56.05
4570;BME280;2297;51.442;6.996;2023-01-10T05:23:16;100280.09;;;6.37;55.79
4570;BME280;2297;51.442;6.996;2023-01-10T05:25:43;100287.13;;;6.29;56.05
4570;BME280;2297;51.442;6.996;2023-01-10T05:28:10;100293.19;;;6.43;55.38
4570;BME280;2297;51.442;6.996;2023-01-10T05:30:37;100307.19;;;6.42;55.58
4570;BME280;2297;51.442;6.996;2023-01-10T05:33:05;100300.28;;;6.13;56.26
4570;BME280;2297;51.442;6.996;2023-01-10T05:35:32;100302.03;;;6.07;56.68
4570;BME280;2297;51.442;6.996;2023-01-10T05:37:59;100302.88;;;6.23;56.16
4570;BME280;2297;51.442;6.996;2023-01-10T05:40:25;100310.75;;;6.18;56.21
4570;BME280;2297;51.442;6.996;2023-01-10T05:42:52;100299.44;;;6.01;56.73
4570;BME280;2297;51.442;6.996;2023-01-10T05:45:19;100302.88;;;6.20;56.13
4570;BME280;2297;51.442;6.996;2023-01-10T05:47:45;100314.28;;;6.11;56.51
4570;BME280;2297;51.442;6.996;2023-01-10T05:50:14;100314.25;;;6.29;55.97
4570;BME280;2297;51.442;6.996;2023-01-10T05:52:40;100323.03;;;6.11;56.32
4570;BME280;2297;51.442;6.996;2023-01-10T05:55:07;100332.63;;;6.00;56.55
4570;BME280;2297;51.442;6.996;2023-01-10T05:57:34;100318.66;;;5.95;56.37
4570;BME280;2297;51.442;6.996;2023-01-10T06:00:01;100330.00;;;6.20;56.15
4570;BME280;2297;51.442;6.996;2023-01-10T06:02:28;100321.22;;;6.27;55.83
4570;BME280;2297;51.442;6.996;2023-01-10T06:04:55;100329.13;;;6.10;56.52
4570;BME280;2297;51.442;6.996;2023-01-10T06:07:23;100335.22;;;6.17;56.08
4570;BME280;2297;51.442;6.996;2023-01-10T06:09:50;100337.00;;;6.15;56.13
4570;BME280;2297;51.442;6.996;2023-01-10T06:12:16;100330.91;;;5.99;56.69
4570;BME280;2297;51.442;6.996;2023-01-10T06:14:44;100342.25;;;6.00;56.87
4570;BME280;2297;51.442;6.996;2023-01-10T06:17:10;100349.28;;;5.80;57.30
4570;BME280;2297;51.442;6.996;2023-01-10T06:19:37;100351.88;;;5.93;56.95
4570;BME280;2297;51.442;6.996;2023-01-10T06:22:04;100365.88;;;5.98;56.79
4570;BME280;2297;51.442;6.996;2023-01-10T06:24:32;100372.84;;;6.02;56.79
4570;BME280;2297;51.442;6.996;2023-01-10T06:26:59;100384.22;;;6.07;56.50
4570;BME280;2297;51.442;6.996;2023-01-10T06:29:25;100375.47;;;5.88;56.61
4570;BME280;2297;51.442;6.996;2023-01-10T06:31:52;100380.72;;;5.87;57.03
4570;BME280;2297;51.442;6.996;2023-01-10T06:34:19;100386.88;;;5.76;57.40
4570;BME280;2297;51.442;6.996;2023-01-10T06:36:45;100381.56;;;6.13;56.58
4570;BME280;2297;51.442;6.996;2023-01-10T06:39:12;100391.19;;;6.07;56.31
4570;BME280;2297;51.442;6.996;2023-01-10T06:41:40;100396.47;;;6.08;56.24
4570;BME280;2297;51.442;6.996;2023-01-10T06:44:07;100396.47;;;6.08;56.35
4570;BME280;2297;51.442;6.996;2023-01-10T06:46:33;100406.03;;;6.09;56.21
4570;BME280;2297;51.442;6.996;2023-01-10T06:49:00;100397.31;;;6.01;56.50
4570;BME280;2297;51.442;6.996;2023-01-10T06:51:27;100415.66;;;6.17;56.06
4570;BME280;2297;51.442;6.996;2023-01-10T06:53:53;100411.25;;;5.63;57.69
4570;BME280;2297;51.442;6.996;2023-01-10T06:56:20;100401.72;;;5.99;56.66
4570;BME280;2297;51.442;6.996;2023-01-10T06:58:48;100422.66;;;6.22;56.05
4570;BME280;2297;51.442;6.996;2023-01-10T07:01:17;100421.78;;;6.19;55.96
4570;BME280;2297;51.442;6.996;2023-01-10T07:03:44;100433.13;;;6.24;56.01
4570;BME280;2297;51.442;6.996;2023-01-10T07:06:11;100438.41;;;6.11;55.78
4570;BME280;2297;51.442;6.996;2023-01-10T07:08:38;100433.16;;;6.10;56.35
4570;BME280;2297;51.442;6.996;2023-01-10T07:11:05;100442.78;;;5.97;56.49
4570;BME280;2297;51.442;6.996;2023-01-10T07:13:32;100456.75;;;5.87;56.80
4570;BME280;2297;51.442;6.996;2023-01-10T07:16:05;100459.38;;;5.84;57.31
4570;BME280;2297;51.442;6.996;2023-01-10T07:18:33;100455.00;;;5.86;57.06
4570;BME280;2297;51.442;6.996;2023-01-10T07:21:00;100458.50;;;6.09;56.55
4570;BME280;2297;51.442;6.996;2023-01-10T07:23:27;100448.00;;;6.08;56.46
4570;BME280;2297;51.442;6.996;2023-01-10T07:25:55;100456.75;;;6.14;56.20
4570;BME280;2297;51.442;6.996;2023-01-10T07:28:22;100449.75;;;6.12;56.26
4570;BME280;2297;51.442;6.996;2023-01-10T07:30:49;100466.34;;;5.66;57.44
4570;BME280;2297;51.442;6.996;2023-01-10T07:33:17;100455.00;;;6.04;56.81
4570;BME280;2297;51.442;6.996;2023-01-10T07:35:43;100470.72;;;6.12;56.38
4570;BME280;2297;51.442;6.996;2023-01-10T07:38:10;100467.25;;;6.11;56.47
4570;BME280;2297;51.442;6.996;2023-01-10T07:40:36;100468.97;;;6.09;56.50
4570;BME280;2297;51.442;6.996;2023-01-10T07:43:03;100485.59;;;6.07;56.92
4570;BME280;2297;51.442;6.996;2023-01-10T07:45:30;100475.97;;;5.98;56.97
4570;BME280;2297;51.442;6.996;2023-01-10T07:47:57;100486.47;;;5.86;57.35
4570;BME280;2297;51.442;6.996;2023-01-10T07:50:27;100492.56;;;5.98;56.91
4570;BME280;2297;51.442;6.996;2023-01-10T07:52:54;100481.22;;;5.86;57.40
4570;BME280;2297;51.442;6.996;2023-01-10T07:55:21;100483.88;;;6.15;56.74
4570;BME280;2297;51.442;6.996;2023-01-10T07:57:48;100486.47;;;5.98;57.13
4570;BME280;2297;51.442;6.996;2023-01-10T08:00:16;100496.09;;;6.14;56.79
4570;BME280;2297;51.442;6.996;2023-01-10T08:02:43;100491.69;;;5.67;57.71
4570;BME280;2297;51.442;6.996;2023-01-10T08:05:10;100499.56;;;5.86;57.54
4570;BME280;2297;51.442;6.996;2023-01-10T08:07:38;100512.66;;;5.79;57.76
4570;BME280;2297;51.442;6.996;2023-01-10T08:10:06;100517.91;;;5.79;57.70
4570;BME280;2297;51.442;6.996;2023-01-10T08:12:32;100518.81;;;6.17;56.70
4570;BME280;2297;51.442;6.996;2023-01-10T08:14:59;100523.16;;;6.01;57.29
4570;BME280;2297;51.442;6.996;2023-01-10T08:17:26;100521.44;;;6.37;56.39
4570;BME280;2297;51.442;6.996;2023-01-10T08:19:53;100521.44;;;6.56;56.03
4570;BME280;2297;51.442;6.996;2023-01-10T08:22:19;100524.06;;;6.36;55.88
4570;BME280;2297;51.442;6.996;2023-01-10T08:24:47;100528.44;;;6.35;55.86
4570;BME280;2297;51.442;6.996;2023-01-10T08:27:14;100528.44;;;6.40;55.77
4570;BME280;2297;51.442;6.996;2023-01-10T08:29:40;100546.81;;;6.52;55.66
4570;BME280;2297;51.442;6.996;2023-01-10T08:32:07;100539.81;;;6.40;55.92
4570;BME280;2297;51.442;6.996;2023-01-10T08:34:34;100539.81;;;6.51;55.40
4570;BME280;2297;51.442;6.996;2023-01-10T08:37:01;100540.69;;;6.33;55.74
4570;BME280;2297;51.442;6.996;2023-01-10T08:39:28;100542.41;;;6.37;55.70
4570;BME280;2297;51.442;6.996;2023-01-10T08:41:57;100540.69;;;6.35;55.74
4570;BME280;2297;51.442;6.996;2023-01-10T08:44:23;100545.06;;;6.23;55.98
4570;BME280;2297;51.442;6.996;2023-01-10T08:46:51;100542.44;;;6.31;55.86
4570;BME280;2297;51.442;6.996;2023-01-10T08:49:17;100538.03;;;6.01;56.56
4570;BME280;2297;51.442;6.996;2023-01-10T08:51:44;100541.53;;;5.96;56.30
4570;BME280;2297;51.442;6.996;2023-01-10T08:54:10;100540.63;;;5.96;56.68
4570;BME280;2297;51.442;6.996;2023-01-10T08:56:37;100539.81;;;6.02;56.37
4570;BME280;2297;51.442;6.996;2023-01-10T08:59:06;100544.16;;;6.10;56.42
4570;BME280;2297;51.442;6.996;2023-01-10T09:01:33;100545.88;;;5.93;56.77
4570;BME280;2297;51.442;6.996;2023-01-10T09:03:59;100537.09;;;5.80;57.10
4570;BME280;2297;51.442;6.996;2023-01-10T09:06:26;100545.78;;;5.62;57.43
4570;BME280;2297;51.442;6.996;2023-01-10T09:08:53;100546.75;;;5.89;57.25
4570;BME280;2297;51.442;6.996;2023-01-10T09:11:20;100552.00;;;5.86;56.88
4570;BME280;2297;51.442;6.996;2023-01-10T09:13:48;100544.09;;;5.73;57.54
4570;BME280;2297;51.442;6.996;2023-01-10T09:16:16;100544.94;;;5.69;57.87
4570;BME280;2297;51.442;6.996;2023-01-10T09:18:42;100552.88;;;5.94;56.85
4570;BME280;2297;51.442;6.996;2023-01-10T09:21:09;100540.63;;;5.87;57.09
4570;BME280;2297;51.442;6.996;2023-01-10T09:23:36;100557.25;;;5.89;57.00
4570;BME280;2297;51.442;6.996;2023-01-10T09:26:04;100552.72;;;5.51;57.80
4570;BME280;2297;51.442;6.996;2023-01-10T09:28:30;100575.63;;;6.07;56.62
4570;BME280;2297;51.442;6.996;2023-01-10T09:30:57;100545.03;;;5.95;56.95
4570;BME280;2297;51.442;6.996;2023-01-10T09:33:26;100548.50;;;5.93;57.15
4570;BME280;2297;51.442;6.996;2023-01-10T09:35:56;100550.28;;;6.03;56.69
4570;BME280;2297;51.442;6.996;2023-01-10T09:38:23;100552.00;;;6.03;56.19
4570;BME280;2297;51.442;6.996;2023-01-10T09:41:01;100563.41;;;6.02;56.49
4570;BME280;2297;51.442;6.996;2023-01-10T09:43:41;100557.28;;;6.23;56.22
4570;BME280;2297;51.442;6.996;2023-01-10T09:46:18;100563.41;;;6.28;55.96
4570;BME280;2297;51.442;6.996;2023-01-10T09:48:55;100549.41;;;6.32;55.28
4570;BME280;2297;51.442;6.996;2023-01-10T09:51:32;100559.91;;;6.66;54.86
4570;BME280;2297;51.442;6.996;2023-01-10T09:54:02;100556.44;;;6.64;54.75
4570;BME280;2297;51.442;6.996;2023-01-10T09:56:32;100557.28;;;6.75;54.53
4570;BME280;2297;51.442;6.996;2023-01-10T09:58:59;100563.41;;;6.34;55.24
4570;BME280;2297;51.442;6.996;2023-01-10T10:01:31;100562.53;;;6.78;54.36
4570;BME280;2297;51.442;6.996;2023-01-10T10:04:10;100556.38;;;6.89;54.15
4570;BME280;2297;51.442;6.996;2023-01-10T10:06:40;100569.53;;;6.62;54.37
4570;BME280;2297;51.442;6.996;2023-01-10T10:09:09;100558.19;;;6.68;54.49
4570;BME280;2297;51.442;6.996;2023-01-10T10:11:48;100555.50;;;6.97;53.50
4570;BME280;2297;51.442;6.996;2023-01-10T10:14:27;100554.56;;;7.14;53.30
4570;BME280;2297;51.442;6.996;2023-01-10T10:17:08;100557.19;;;7.15;53.38
4570;BME280;2297;51.442;6.996;2023-01-10T10:19:51;100547.56;;;7.33;52.89
4570;BME280;2297;51.442;6.996;2023-01-10T10:22:27;100552.78;;;7.36;52.31
4570;BME280;2297;51.442;6.996;2023-01-10T10:25:03;100547.56;;;7.30;52.91
4570;BME280;2297;51.442;6.996;2023-01-10T10:27:42;100554.56;;;7.25;52.67
4570;BME280;2297;51.442;6.996;2023-01-10T10:30:27;100540.56;;;7.20;53.01
4570;BME280;2297;51.442;6.996;2023-01-10T10:33:05;100539.63;;;7.44;52.56
4570;BME280;2297;51.442;6.996;2023-01-10T10:35:38;100542.22;;;7.50;52.08
4570;BME280;2297;51.442;6.996;2023-01-10T10:38:11;100543.94;;;7.59;51.94
4570;BME280;2297;51.442;6.996;2023-01-10T10:40:40;100552.81;;;7.33;52.00
4570;BME280;2297;51.442;6.996;2023-01-10T10:43:14;100544.88;;;7.44;52.42
4570;BME280;2297;51.442;6.996;2023-01-10T10:45:47;100565.78;;;7.73;51.59
4570;BME280;2297;51.442;6.996;2023-01-10T10:48:19;100563.31;;;7.30;52.30
4570;BME280;2297;51.442;6.996;2023-01-10T10:50:54;100542.28;;;7.21;52.51
4570;BME280;2297;51.442;6.996;2023-01-10T10:53:24;100545.84;;;7.10;52.92
4570;BME280;2297;51.442;6.996;2023-01-10T10:55:51;100538.81;;;7.22;52.76
4570;BME280;2297;51.442;6.996;2023-01-10T10:58:18;100525.75;;;6.94;53.32
4570;BME280;2297;51.442;6.996;2023-01-10T11:00:45;100520.31;;;7.53;51.77
4570;BME280;2297;51.442;6.996;2023-01-10T11:03:24;100516.91;;;7.34;52.66
4570;BME280;2297;51.442;6.996;2023-01-10T11:05:54;100511.44;;;7.72;51.78
4570;BME280;2297;51.442;6.996;2023-01-10T11:08:21;100519.38;;;7.66;51.52
4570;BME280;2297;51.442;6.996;2023-01-10T11:10:53;100510.72;;;7.45;52.49
4570;BME280;2297;51.442;6.996;2023-01-10T11:13:28;100507.16;;;7.56;52.17
4570;BME280;2297;51.442;6.996;2023-01-10T11:15:56;100512.31;;;7.74;51.92
4570;BME280;2297;51.442;6.996;2023-01-10T11:18:25;100498.28;;;7.72;51.89
4570;BME280;2297;51.442;6.996;2023-01-10T11:20:55;100500.22;;;7.39;52.31
4570;BME280;2297;51.442;6.996;2023-01-10T11:23:27;100496.66;;;7.51;52.03
4570;BME280;2297;51.442;6.996;2023-01-10T11:25:58;100499.00;;;7.99;51.08
4570;BME280;2297;51.442;6.996;2023-01-10T11:28:28;100493.03;;;7.72;51.30
4570;BME280;2297;51.442;6.996;2023-01-10T11:30:55;100504.53;;;7.56;51.80
4570;BME280;2297;51.442;6.996;2023-01-10T11:33:27;100497.59;;;7.38;52.28
4570;BME280;2297;51.442;6.996;2023-01-10T11:35:59;100494.94;;;7.52;51.78
4570;BME280;2297;51.442;6.996;2023-01-10T11:38:26;100498.97;;;8.05;51.06
4570;BME280;2297;51.442;6.996;2023-01-10T11:40:56;100492.84;;;8.03;50.88
4570;BME280;2297;51.442;6.996;2023-01-10T11:43:30;100487.78;;;7.75;51.27
4570;BME280;2297;51.442;6.996;2023-01-10T11:46:00;100491.25;;;7.77;51.35
4570;BME280;2297;51.442;6.996;2023-01-10T11:48:40;100489.38;;;7.98;50.80
4570;BME280;2297;51.442;6.996;2023-01-10T11:51:18;100484.28;;;7.69;51.68
4570;BME280;2297;51.442;6.996;2023-01-10T11:53:45;100491.50;;;7.22;52.55
4570;BME280;2297;51.442;6.996;2023-01-10T11:56:24;100482.63;;;7.54;51.99
4570;BME280;2297;51.442;6.996;2023-01-10T11:58:52;100475.47;;;7.77;51.95
4570;BME280;2297;51.442;6.996;2023-01-10T12:01:28;100473.75;;;7.73;51.41
4570;BME280;2297;51.442;6.996;2023-01-10T12:03:56;100475.50;;;7.74;51.90
4570;BME280;2297;51.442;6.996;2023-01-10T12:06:26;100470.97;;;7.95;51.49
4570;BME280;2297;51.442;6.996;2023-01-10T12:08:53;100476.19;;;8.01;51.06
4570;BME280;2297;51.442;6.996;2023-01-10T12:11:27;100477.16;;;7.88;50.90
4570;BME280;2297;51.442;6.996;2023-01-10T12:13:57;100477.06;;;8.03;51.13
4570;BME280;2297;51.442;6.996;2023-01-10T12:16:25;100462.00;;;8.21;50.35
4570;BME280;2297;51.442;6.996;2023-01-10T12:18:55;100471.66;;;8.22;50.25
4570;BME280;2297;51.442;6.996;2023-01-10T12:21:31;100463.25;;;7.73;51.27
4570;BME280;2297;51.442;6.996;2023-01-10T12:24:04;100457.66;;;8.13;50.71
4570;BME280;2297;51.442;6.996;2023-01-10T12:26:34;100455.72;;;8.40;49.71
4570;BME280;2297;51.442;6.996;2023-01-10T12:29:07;100452.16;;;8.44;49.92
4570;BME280;2297;51.442;6.996;2023-01-10T12:31:38;100455.63;;;8.46;50.01
4570;BME280;2297;51.442;6.996;2023-01-10T12:34:13;100451.59;;;8.10;50.70
4570;BME280;2297;51.442;6.996;2023-01-10T12:36:48;100448.69;;;8.39;49.97
4570;BME280;2297;51.442;6.996;2023-01-10T12:39:21;100439.88;;;8.43;49.57
4570;BME280;2297;51.442;6.996;2023-01-10T12:41:55;100447.84;;;8.36;49.84
4570;BME280;2297;51.442;6.996;2023-01-10T12:44:45;100452.88;;;8.57;49.67
4570;BME280;2297;51.442;6.996;2023-01-10T12:47:20;100447.06;;;8.23;50.21
4570;BME280;2297;51.442;6.996;2023-01-10T12:49:52;100425.91;;;8.37;50.00
4570;BME280;2297;51.442;6.996;2023-01-10T12:52:31;100433.00;;;8.30;49.94
4570;BME280;2297;51.442;6.996;2023-01-10T12:54:58;100438.38;;;8.14;50.20
4570;BME280;2297;51.442;6.996;2023-01-10T12:57:29;100431.25;;;8.27;49.86
4570;BME280;2297;51.442;6.996;2023-01-10T13:00:01;100436.41;;;8.38;49.83
4570;BME280;2297;51.442;6.996;2023-01-10T13:02:41;100419.22;;;8.00;50.45
4570;BME280;2297;51.442;6.996;2023-01-10T13:05:16;100416.28;;;8.34;49.87
4570;BME280;2297;51.442;6.996;2023-01-10T13:07:45;100405.53;;;8.54;49.17
4570;BME280;2297;51.442;6.996;2023-01-10T13:10:14;100401.03;;;8.65;49.02
4570;BME280;2297;51.442;6.996;2023-01-10T13:12:46;100399.41;;;8.54;48.86
4570;BME280;2297;51.442;6.996;2023-01-10T13:15:19;100387.88;;;8.64;48.85
4570;BME280;2297;51.442;6.996;2023-01-10T13:17:51;100381.81;;;8.56;48.75
4570;BME280;2297;51.442;6.996;2023-01-10T13:20:28;100367.41;;;8.88;48.22
4570;BME280;2297;51.442;6.996;2023-01-10T13:23:19;100365.81;;;8.76;47.71
4570;BME280;2297;51.442;6.996;2023-01-10T13:25:54;100374.69;;;8.64;47.64
4570;BME280;2297;51.442;6.996;2023-01-10T13:28:22;100373.50;;;8.13;48.34
4570;BME280;2297;51.442;6.996;2023-01-10T13:30:52;100360.16;;;8.30;48.04
4570;BME280;2297;51.442;6.996;2023-01-10T13:33:22;100372.56;;;8.21;47.90
4570;BME280;2297;51.442;6.996;2023-01-10T13:35:50;100361.16;;;8.19;47.90
4570;BME280;2297;51.442;6.996;2023-01-10T13:38:21;100367.94;;;8.41;47.05
4570;BME280;2297;51.442;6.996;2023-01-10T13:41:00;100359.31;;;8.30;47.50
4570;BME280;2297;51.442;6.996;2023-01-10T13:46:43;100359.09;;;8.48;46.63